Time;durP1;ratioP1;P1;durP2;ratioP2;P2;SDS_P1;SDS_P2;PMS_P1;PMS_P2;Temp;Humidity;BMP_temperature;BMP_pressure;BME280_temperature;BME280_humidity;BME280_pressure;Samples;Min_cycle;Max_cycle;Signal;HPM_P1;HPM_P2
2024/03/19 00:01:36;;;;;;;12.68;5.03;;;;;;;-146.27;85.56;43600.44;5073836;28;20024;-74
2024/03/19 00:04:01;;;;;;;15.88;5.88;;;;;;;-146.27;85.46;43558.66;5073602;28;20091;-73
2024/03/19 00:06:26;;;;;;;17.67;5.60;;;;;;;-146.27;85.61;43570.59;5071069;28;20016;-73
2024/03/19 00:08:52;;;;;;;24.38;6.10;;;;;;;-146.27;85.48;43584.50;5073838;28;20107;-74
2024/03/19 00:11:18;;;;;;;21.55;6.50;;;;;;;-146.27;85.45;43572.56;5072863;28;20123;-73
2024/03/19 00:13:44;;;;;;;15.50;5.05;;;;;;;-146.27;85.24;43554.66;5072925;28;20025;-74
2024/03/19 00:16:09;;;;;;;16.52;5.10;;;;;;;-146.27;84.82;43574.56;5078205;28;20040;-74
2024/03/19 00:18:35;;;;;;;16.33;6.78;;;;;;;-146.27;84.59;43582.53;5101224;28;20024;-74
2024/03/19 00:21:00;;;;;;;14.35;5.20;;;;;;;-146.27;84.42;43598.44;5074257;28;20029;-74
2024/03/19 00:23:26;;;;;;;15.70;5.88;;;;;;;-146.27;84.37;43612.34;5081578;28;20048;-74
2024/03/19 00:25:51;;;;;;;15.95;5.82;;;;;;;-146.27;84.61;43622.31;5072502;28;20556;-75
2024/03/19 00:28:17;;;;;;;17.20;5.53;;;;;;;-146.27;84.78;43594.47;5073209;28;20029;-74
2024/03/19 00:30:44;;;;;;;16.42;6.72;;;;;;;-146.27;85.03;43594.47;5074671;28;20056;-74
2024/03/19 00:33:10;;;;;;;15.18;5.97;;;;;;;-146.27;84.94;43572.56;5104729;28;20032;-71
2024/03/19 00:35:45;;;;;;;19.85;6.82;;;;;;;-146.27;85.34;43554.66;5090563;28;20080;-72
2024/03/19 00:38:10;;;;;;;12.45;5.70;;;;;;;-146.27;85.29;43522.84;5091825;28;20371;-71
2024/03/19 00:40:36;;;;;;;17.20;5.80;;;;;;;-146.27;85.13;43536.75;5084413;28;20085;-71
2024/03/19 00:43:05;;;;;;;13.57;5.85;;;;;;;-146.27;84.68;43500.97;5101825;28;20495;-71
2024/03/19 00:45:30;;;;;;;15.18;5.97;;;;;;;-146.27;84.39;43558.66;5089673;28;20024;-71
2024/03/19 00:47:56;;;;;;;17.48;5.90;;;;;;;-146.27;84.32;43578.53;5111483;27;20069;-72
2024/03/19 00:50:21;;;;;;;10.85;4.90;;;;;;;-146.27;84.64;43530.81;5086932;28;20111;-72
2024/03/19 00:52:47;;;;;;;10.45;4.85;;;;;;;-146.27;84.42;43534.78;5107771;28;20502;-71
2024/03/19 00:55:12;;;;;;;16.13;5.10;;;;;;;-146.27;84.16;43510.91;5082809;28;20107;-72
2024/03/19 00:57:38;;;;;;;13.18;4.97;;;;;;;-146.27;83.89;43510.91;5085285;28;20429;-72
2024/03/19 01:00:11;;;;;;;8.13;4.60;;;;;;;-146.27;83.71;43502.94;5089362;28;20028;-72
2024/03/19 01:02:46;;;;;;;11.10;4.80;;;;;;;-146.27;83.77;43518.88;5092122;28;20361;-71
2024/03/19 01:05:12;;;;;;;11.52;4.97;;;;;;;-146.27;83.45;43534.78;5099020;28;20095;-73
2024/03/19 01:07:40;;;;;;;10.90;4.85;;;;;;;-146.27;83.39;43528.81;5091980;28;20107;-72
2024/03/19 01:10:09;;;;;;;15.60;5.22;;;;;;;-146.27;83.33;43564.63;5095384;28;20023;-72
2024/03/19 01:12:35;;;;;;;16.83;4.88;;;;;;;-146.27;83.57;43542.72;5094183;28;20034;-72
2024/03/19 01:15:00;;;;;;;12.07;4.95;;;;;;;-146.27;82.95;43528.81;5086598;28;20028;-71
2024/03/19 01:17:25;;;;;;;11.57;4.45;;;;;;;-146.27;82.82;43556.66;5084782;28;20032;-72
2024/03/19 01:19:51;;;;;;;13.75;4.88;;;;;;;-146.27;82.88;43554.66;5091578;28;20026;-71
2024/03/19 01:22:17;;;;;;;14.65;4.40;;;;;;;-146.27;82.58;43548.69;5090374;28;20369;-72
2024/03/19 01:24:42;;;;;;;15.68;4.85;;;;;;;-146.27;82.52;43532.78;5088428;28;20043;-72
2024/03/19 01:27:08;;;;;;;12.57;4.75;;;;;;;-146.27;82.56;43518.88;5089029;28;20032;-71
2024/03/19 01:29:35;;;;;;;16.27;4.65;;;;;;;-146.27;82.44;43566.59;5095575;28;20620;-71
2024/03/19 01:32:00;;;;;;;9.38;4.50;;;;;;;-146.27;82.55;43574.56;5103612;28;20114;-72
2024/03/19 01:34:25;;;;;;;9.75;4.65;;;;;;;-146.27;82.14;43544.72;5095697;28;20158;-72
2024/03/19 01:36:51;;;;;;;8.88;4.75;;;;;;;-146.27;82.28;43554.66;5086189;28;20372;-72
2024/03/19 01:39:17;;;;;;;17.15;4.95;;;;;;;-146.27;82.34;43562.63;5079395;28;20127;-72
2024/03/19 01:41:43;;;;;;;14.70;4.20;;;;;;;-146.27;82.71;43558.66;5094828;28;20092;-71
2024/03/19 01:44:16;;;;;;;12.65;4.32;;;;;;;-146.27;82.32;43514.88;5089398;28;20020;-71
2024/03/19 01:46:43;;;;;;;;;;;;;;;-146.27;82.43;43526.81;5089327;28;20064;-72
2024/03/19 01:49:09;;;;;;;8.68;4.72;;;;;;;-146.27;83.36;43596.44;5089871;28;19919;-71
2024/03/19 01:51:34;;;;;;;13.88;5.00;;;;;;;-146.27;82.77;43542.72;5101943;28;20484;-71
2024/03/19 01:54:00;;;;;;;12.32;4.50;;;;;;;-146.27;82.85;43552.69;5110434;28;20487;-72
2024/03/19 01:56:26;;;;;;;13.63;5.13;;;;;;;-146.27;82.60;43560.63;5074265;28;20084;-72
2024/03/19 01:58:52;;;;;;;9.73;4.80;;;;;;;-146.27;82.87;43582.53;5094655;28;20024;-71
2024/03/19 02:01:18;;;;;;;9.77;4.65;;;;;;;-146.27;82.60;43540.75;5091525;28;20027;-71
2024/03/19 02:03:44;;;;;;;7.90;3.83;;;;;;;-146.27;82.44;43562.63;5083191;28;20411;-70
2024/03/19 02:06:11;;;;;;;9.93;4.80;;;;;;;-146.27;82.89;43566.59;5094775;28;20038;-71
2024/03/19 02:08:36;;;;;;;11.45;4.30;;;;;;;-146.27;82.96;43562.63;5091254;28;20066;-72
2024/03/19 02:11:02;;;;;;;12.02;4.43;;;;;;;-146.27;82.70;43582.53;5075633;28;20052;-71
2024/03/19 02:13:27;;;;;;;11.15;4.97;;;;;;;-146.27;83.35;43570.59;5077544;28;20020;-71
2024/03/19 02:15:53;;;;;;;15.88;4.50;;;;;;;-146.27;83.50;43594.47;5097196;28;20614;-71
2024/03/19 02:18:18;;;;;;;11.32;4.53;;;;;;;-146.27;83.96;43586.50;5099967;28;20040;-72
2024/03/19 02:20:44;;;;;;;8.43;3.92;;;;;;;-146.27;83.89;43574.56;5105307;28;20027;-72
2024/03/19 02:23:09;;;;;;;10.82;5.10;;;;;;;-146.27;83.54;43558.66;5076358;28;20044;-71
2024/03/19 02:25:34;;;;;;;10.65;4.68;;;;;;;-146.27;83.66;43562.63;5089189;28;20039;-71
2024/03/19 02:28:00;;;;;;;14.38;4.75;;;;;;;-146.27;83.58;43534.78;5089554;28;20052;-73
2024/03/19 02:30:25;;;;;;;10.80;4.50;;;;;;;-146.27;83.57;43572.56;5085823;28;20027;-73
2024/03/19 02:32:50;;;;;;;8.95;4.10;;;;;;;-146.27;83.71;43580.53;5080638;28;20077;-71
2024/03/19 02:35:16;;;;;;;12.23;4.10;;;;;;;-146.27;83.64;43560.63;5089039;28;20085;-72
2024/03/19 02:37:41;;;;;;;9.30;4.05;;;;;;;-146.27;83.78;43566.59;5089650;28;20121;-72
2024/03/19 02:40:07;;;;;;;8.90;3.35;;;;;;;-146.27;83.57;43564.63;5088848;28;20054;-71
2024/03/19 02:42:34;;;;;;;11.88;3.72;;;;;;;-146.27;83.78;43566.59;5087939;28;20036;-73
2024/03/19 02:45:00;;;;;;;10.00;3.25;;;;;;;-146.27;84.23;43602.41;5085136;28;20110;-71
2024/03/19 02:47:26;;;;;;;11.27;2.97;;;;;;;-146.27;83.83;43550.69;5090508;28;20046;-72
2024/03/19 02:49:51;;;;;;;9.80;3.42;;;;;;;-146.27;84.01;43594.47;5085520;28;20032;-71
2024/03/19 02:52:16;;;;;;;10.68;3.63;;;;;;;-146.27;84.31;43600.44;5088141;28;20388;-72
2024/03/19 02:54:43;;;;;;;8.00;3.13;;;;;;;-146.27;85.01;43594.47;5087494;28;20480;-72
2024/03/19 02:57:08;;;;;;;13.23;3.33;;;;;;;-146.27;84.21;43578.53;5088089;28;20028;-72
2024/03/19 02:59:33;;;;;;;7.82;2.80;;;;;;;-146.27;84.03;43586.50;5096790;28;20028;-71
2024/03/19 03:01:59;;;;;;;12.48;3.75;;;;;;;-146.27;83.91;43552.69;5083208;28;20035;-71
2024/03/19 03:04:24;;;;;;;7.38;3.40;;;;;;;-146.27;83.58;43584.50;5081988;28;20012;-72
2024/03/19 03:06:50;;;;;;;8.57;3.05;;;;;;;-146.27;83.96;43630.25;5098134;28;20103;-72
2024/03/19 03:09:17;;;;;;;12.65;3.55;;;;;;;-146.27;84.42;43594.47;5093868;28;20024;-73
2024/03/19 03:11:43;;;;;;;9.95;3.70;;;;;;;-146.27;83.96;43610.38;5087364;28;20650;-71
2024/03/19 03:14:08;;;;;;;10.27;3.70;;;;;;;-146.27;84.67;43642.19;5091711;28;20109;-73
2024/03/19 03:16:34;;;;;;;14.60;4.18;;;;;;;-146.27;84.48;43608.38;5090038;28;20145;-71
2024/03/19 03:19:00;;;;;;;13.57;4.72;;;;;;;-146.27;84.82;43618.31;5092851;28;20444;-71
2024/03/19 03:21:25;;;;;;;10.05;3.00;;;;;;;-146.27;84.71;43562.63;5094596;28;20502;-71
2024/03/19 03:23:51;;;;;;;8.25;3.50;;;;;;;-146.27;84.45;43570.59;5094617;28;20019;-70
2024/03/19 03:26:16;;;;;;;6.78;3.42;;;;;;;-146.27;84.26;43584.50;5092831;28;20097;-73
2024/03/19 03:28:41;;;;;;;7.88;3.15;;;;;;;-146.27;84.28;43568.59;5096531;28;20395;-71
2024/03/19 03:31:07;;;;;;;9.50;3.30;;;;;;;-146.27;84.33;43602.41;5092269;28;20506;-70
2024/03/19 03:33:33;;;;;;;7.63;3.08;;;;;;;-146.27;84.45;43558.66;5097402;28;20073;-72
2024/03/19 03:35:58;;;;;;;18.25;3.20;;;;;;;-146.27;84.14;43554.66;5110797;28;20470;-72
2024/03/19 03:38:25;;;;;;;12.18;3.58;;;;;;;-146.27;84.40;43572.56;5094875;28;20039;-71
2024/03/19 03:40:53;;;;;;;7.47;3.08;;;;;;;-146.27;84.42;43590.47;5096709;28;20019;-72
2024/03/19 03:43:19;;;;;;;10.25;3.55;;;;;;;-146.27;84.65;43590.47;5094272;28;20044;-71
2024/03/19 03:45:46;;;;;;;13.00;3.78;;;;;;;-146.27;84.87;43598.44;5092408;28;20047;-72
2024/03/19 03:48:11;;;;;;;9.07;3.55;;;;;;;-146.27;84.04;43574.56;5098491;28;20089;-72
2024/03/19 03:50:37;;;;;;;9.60;3.38;;;;;;;-146.27;84.15;43586.50;5085069;28;20029;-71
2024/03/19 03:53:02;;;;;;;13.10;4.10;;;;;;;-146.27;83.88;43542.72;5106122;28;20106;-72
2024/03/19 03:55:27;;;;;;;9.55;3.63;;;;;;;-146.27;84.12;43572.56;5094353;28;20089;-72
2024/03/19 03:57:53;;;;;;;9.10;3.67;;;;;;;-146.27;84.48;43588.50;5101922;28;20031;-73
2024/03/19 04:00:22;;;;;;;17.33;4.30;;;;;;;-146.27;84.34;43550.69;5087811;28;20094;-72
2024/03/19 04:02:48;;;;;;;8.40;3.08;;;;;;;-146.27;83.88;43544.72;5102948;28;20425;-74
2024/03/19 04:05:14;;;;;;;7.30;3.45;;;;;;;-146.27;83.70;43542.72;5080918;28;20132;-75
2024/03/19 04:07:41;;;;;;;15.43;3.35;;;;;;;-146.27;83.49;43562.63;5077848;28;20074;-74
2024/03/19 04:10:12;;;;;;;8.57;3.13;;;;;;;-146.27;83.41;43540.75;5073122;28;20100;-74
2024/03/19 04:12:38;;;;;;;11.25;3.90;;;;;;;-146.27;83.15;43538.75;5106795;28;20028;-73
2024/03/19 04:15:09;;;;;;;9.98;3.85;;;;;;;-146.27;83.39;43542.72;5086774;28;20040;-73
2024/03/19 04:17:35;;;;;;;6.45;3.17;;;;;;;-146.27;83.35;43522.84;5095175;28;20063;-73
2024/03/19 04:20:01;;;;;;;8.50;3.05;;;;;;;-146.27;83.55;43562.63;5090050;28;20055;-74
2024/03/19 04:22:26;;;;;;;8.05;3.10;;;;;;;-146.27;84.64;43606.38;5095450;28;20032;-73
2024/03/19 04:24:52;;;;;;;9.43;4.18;;;;;;;-146.27;83.86;43548.69;5096458;28;20036;-74
2024/03/19 04:27:17;;;;;;;14.55;3.28;;;;;;;-146.27;83.73;43534.78;5098636;28;20028;-74
2024/03/19 04:29:43;;;;;;;9.15;3.05;;;;;;;-146.27;83.45;43522.84;5093806;28;20028;-74
2024/03/19 04:32:08;;;;;;;7.35;3.38;;;;;;;-146.27;83.34;43566.59;5092542;28;20040;-74
2024/03/19 04:34:34;;;;;;;7.60;3.25;;;;;;;-146.27;83.17;43512.91;5088476;28;20031;-74
2024/03/19 04:36:59;;;;;;;8.90;2.90;;;;;;;-146.27;83.46;43598.44;5099231;28;20023;-74
2024/03/19 04:39:25;;;;;;;12.05;3.20;;;;;;;-146.27;83.65;43558.66;5076203;28;20057;-74
2024/03/19 04:41:50;;;;;;;7.35;2.95;;;;;;;-146.27;83.29;43536.75;5106929;28;20016;-74
2024/03/19 04:44:16;;;;;;;8.23;3.20;;;;;;;-146.27;83.04;43548.69;5089826;28;20028;-74
2024/03/19 04:46:41;;;;;;;9.73;3.00;;;;;;;-146.27;83.15;43550.69;5084190;28;20024;-74
2024/03/19 04:49:06;;;;;;;10.50;3.05;;;;;;;-146.27;83.29;43592.47;5076606;28;20063;-74
2024/03/19 04:51:32;;;;;;;3.75;2.53;;;;;;;-146.27;82.96;43554.66;5090533;28;20119;-74
2024/03/19 04:53:57;;;;;;;11.52;2.83;;;;;;;-146.27;83.11;43590.47;5090406;28;20115;-74
2024/03/19 04:56:23;;;;;;;6.88;2.33;;;;;;;-146.27;82.81;43596.44;5103656;27;20035;-74
2024/03/19 04:58:49;;;;;;;7.30;2.88;;;;;;;-146.27;82.69;43574.56;5092032;28;20038;-74
2024/03/19 05:01:16;;;;;;;6.97;2.45;;;;;;;-146.27;82.79;43570.59;5088118;28;20096;-74
2024/03/19 05:03:41;;;;;;;6.57;2.33;;;;;;;-146.27;82.39;43570.59;5084641;28;20472;-76
2024/03/19 05:06:11;;;;;;;4.50;2.30;;;;;;;-146.27;82.23;43566.59;5082470;28;20019;-73
2024/03/19 05:08:37;;;;;;;4.95;2.25;;;;;;;-146.27;82.10;43598.44;5074515;28;20028;-75
2024/03/19 05:11:02;;;;;;;6.55;2.30;;;;;;;-146.27;81.98;43582.53;5071509;28;20473;-76
2024/03/19 05:13:28;;;;;;;11.65;2.47;;;;;;;-146.27;81.96;43590.47;5098825;28;20035;-76
2024/03/19 05:15:53;;;;;;;3.80;1.92;;;;;;;-146.27;81.98;43562.63;5073381;28;20031;-76
2024/03/19 05:18:18;;;;;;;5.93;2.22;;;;;;;-146.27;81.87;43582.53;5084291;28;20634;-77
2024/03/19 05:20:44;;;;;;;9.70;3.13;;;;;;;-146.27;81.82;43622.31;5078652;28;20060;-76
2024/03/19 05:23:09;;;;;;;4.50;2.10;;;;;;;-146.27;81.82;43594.47;5075652;28;20904;-76
2024/03/19 05:25:35;;;;;;;7.10;2.30;;;;;;;-146.27;81.68;43586.50;5074900;28;20481;-76
2024/03/19 05:28:00;;;;;;;12.70;2.70;;;;;;;-146.27;81.75;43586.50;5077993;28;20389;-76
2024/03/19 05:30:27;;;;;;;5.60;2.50;;;;;;;-146.27;81.80;43626.28;5077857;28;20507;-76
2024/03/19 05:32:53;;;;;;;9.00;2.40;;;;;;;-146.27;81.60;43616.34;5081466;28;20031;-76
2024/03/19 05:35:19;;;;;;;5.07;2.63;;;;;;;-146.27;81.60;43626.28;5080828;28;20484;-77
2024/03/19 05:37:44;;;;;;;4.13;2.30;;;;;;;-146.27;81.48;43608.38;5083656;28;20028;-77
2024/03/19 05:40:12;;;;;;;7.10;2.78;;;;;;;-146.27;81.62;43662.09;5071056;28;20043;-76
2024/03/19 05:42:37;;;;;;;9.45;2.40;;;;;;;-146.27;81.48;43614.34;5082067;28;20081;-77
2024/03/19 05:45:03;;;;;;;10.68;3.38;;;;;;;-146.27;81.65;43646.19;5076982;28;20567;-77
2024/03/19 05:47:31;;;;;;;7.13;2.35;;;;;;;-146.27;81.69;43614.34;5071028;28;20589;-76
2024/03/19 05:49:56;;;;;;;10.90;2.40;;;;;;;-146.27;81.79;43654.13;5070973;28;20111;-76
2024/03/19 05:52:24;;;;;;;9.80;2.80;;;;;;;-146.27;81.30;43662.09;5071550;28;20142;-77
2024/03/19 05:54:49;;;;;;;4.85;2.20;;;;;;;-146.27;80.96;43636.22;5074052;28;20055;-76
2024/03/19 05:57:16;;;;;;;9.38;2.50;;;;;;;-146.27;81.27;43630.25;5070875;28;20146;-76
2024/03/19 05:59:42;;;;;;;6.18;2.80;;;;;;;-146.27;81.08;43622.31;5076688;28;20012;-76
2024/03/19 06:02:08;;;;;;;8.38;2.70;;;;;;;-146.27;81.08;43638.22;5088438;28;20391;-75
2024/03/19 06:04:34;;;;;;;7.63;2.67;;;;;;;-146.27;81.25;43670.06;5082937;28;20107;-76
2024/03/19 06:07:00;;;;;;;8.10;2.90;;;;;;;-146.27;80.79;43662.09;5082396;28;20772;-76
2024/03/19 06:09:25;;;;;;;11.18;3.25;;;;;;;-146.27;80.66;43683.97;5076181;28;20115;-76
2024/03/19 06:11:51;;;;;;;11.27;2.50;;;;;;;-146.27;80.64;43666.06;5090657;28;20488;-74
2024/03/19 06:14:16;;;;;;;10.05;2.95;;;;;;;-146.27;80.62;43699.88;5085044;28;20024;-75
2024/03/19 06:16:41;;;;;;;11.32;2.88;;;;;;;-146.27;80.58;43725.75;5097470;28;20031;-74
2024/03/19 06:19:07;;;;;;;8.30;2.83;;;;;;;-146.27;80.14;43666.06;5072289;28;20043;-75
2024/03/19 06:21:32;;;;;;;9.88;3.00;;;;;;;-146.27;80.01;43793.41;5079942;28;20434;-76
2024/03/19 06:23:59;;;;;;;9.57;2.83;;;;;;;-146.27;80.45;43797.38;5081167;28;20398;-69
2024/03/19 06:26:24;;;;;;;9.32;4.30;;;;;;;-146.27;80.81;43861.03;5084019;28;20149;-73
2024/03/19 06:28:50;;;;;;;6.60;2.67;;;;;;;-146.27;80.72;43835.16;5090869;28;20373;-72
2024/03/19 06:31:15;;;;;;;7.75;2.95;;;;;;;-146.27;80.23;43872.97;5088017;28;20035;-70
2024/03/19 06:33:41;;;;;;;17.50;3.85;;;;;;;-146.27;80.08;43869.00;5091232;28;20028;-70
2024/03/19 06:36:07;;;;;;;7.07;3.00;;;;;;;-146.27;79.91;43908.78;5091624;28;20357;-71
2024/03/19 06:38:32;;;;;;;8.93;3.47;;;;;;;-146.27;79.96;43908.78;5091192;28;20028;-72
2024/03/19 06:40:58;;;;;;;9.13;3.45;;;;;;;-146.27;80.06;43996.31;5090923;28;20080;-70
2024/03/19 06:43:23;;;;;;;7.55;3.03;;;;;;;-146.27;79.99;44016.22;5090968;28;20026;-72
2024/03/19 06:45:49;;;;;;;9.68;3.42;;;;;;;-146.27;80.13;44028.16;5090899;28;20077;-68
2024/03/19 06:48:14;;;;;;;11.25;3.83;;;;;;;-146.27;79.99;44056.00;5081671;28;20391;-69
2024/03/19 06:50:39;;;;;;;6.68;3.22;;;;;;;-146.27;79.80;44059.97;5080087;28;20034;-72
2024/03/19 06:53:05;;;;;;;8.93;2.97;;;;;;;-146.27;79.75;44040.09;5089730;28;20097;-69
2024/03/19 06:55:32;;;;;;;9.30;3.45;;;;;;;-146.27;80.31;44157.47;5082392;28;20109;-69
2024/03/19 06:57:57;;;;;;;7.32;3.15;;;;;;;-146.27;80.83;44171.41;5079883;28;20034;-70
2024/03/19 07:00:23;;;;;;;7.65;3.25;;;;;;;-146.27;80.42;44131.59;5087857;28;20024;-69
2024/03/19 07:02:49;;;;;;;12.75;3.50;;;;;;;-146.27;80.38;44159.47;5094410;28;20069;-72
2024/03/19 07:05:14;;;;;;;14.70;3.53;;;;;;;-146.27;79.96;44143.53;5089102;28;20034;-70
2024/03/19 07:07:40;;;;;;;4.00;2.47;;;;;;;-146.27;80.29;44151.50;5090377;28;20035;-70
2024/03/19 07:10:07;;;;;;;5.18;3.10;;;;;;;-146.27;79.42;44087.84;5090354;28;20020;-71
2024/03/19 07:12:32;;;;;;;7.97;2.55;;;;;;;-146.27;79.83;44113.69;5084962;28;20496;-69
2024/03/19 07:15:00;;;;;;;9.45;3.00;;;;;;;-146.27;79.76;44099.78;5089102;28;20063;-70
2024/03/19 07:17:26;;;;;;;8.07;2.63;;;;;;;-146.27;79.31;44111.72;5089865;28;20081;-70
2024/03/19 07:19:51;;;;;;;6.72;2.67;;;;;;;-146.27;79.30;44083.84;5090075;28;20024;-69
2024/03/19 07:22:17;;;;;;;7.97;3.05;;;;;;;-146.27;79.15;44097.78;5078408;28;20105;-71
2024/03/19 07:24:42;;;;;;;7.20;2.38;;;;;;;-146.27;78.98;44067.94;5070771;28;20473;-71
2024/03/19 07:27:07;;;;;;;3.55;2.05;;;;;;;-146.27;78.82;44075.91;5089987;28;20027;-70
2024/03/19 07:29:33;;;;;;;6.35;2.50;;;;;;;-146.27;78.89;44048.03;5088176;28;20049;-68
2024/03/19 07:31:59;;;;;;;7.07;2.90;;;;;;;-146.27;78.90;44089.81;5087571;28;20081;-70
2024/03/19 07:34:24;;;;;;;6.30;2.55;;;;;;;-146.27;79.09;44099.78;5089307;28;20020;-70
2024/03/19 07:36:50;;;;;;;10.95;2.92;;;;;;;-146.27;78.80;44127.63;5073010;28;20044;-68
2024/03/19 07:39:16;;;;;;;5.65;2.85;;;;;;;-146.27;78.71;44075.91;5069820;28;20024;-67
2024/03/19 07:41:42;;;;;;;6.10;2.78;;;;;;;-146.27;78.41;44093.81;5069841;28;20473;-69
2024/03/19 07:44:08;;;;;;;6.47;3.05;;;;;;;-146.27;78.49;44099.78;5069924;28;20017;-69
2024/03/19 07:46:34;;;;;;;14.27;2.78;;;;;;;-146.27;78.43;44095.78;5072384;28;20028;-71
2024/03/19 07:49:00;;;;;;;7.50;3.13;;;;;;;-146.27;78.31;44095.78;5085997;28;20026;-70
2024/03/19 07:51:27;;;;;;;5.90;2.78;;;;;;;-146.27;78.35;44107.72;5083118;28;20487;-69
2024/03/19 07:53:53;;;;;;;7.18;2.42;;;;;;;-146.27;78.19;44091.81;5089663;28;20024;-70
2024/03/19 07:56:18;;;;;;;9.32;3.25;;;;;;;-146.27;77.96;44052.03;5088485;28;20506;-70
2024/03/19 07:58:44;;;;;;;4.57;3.22;;;;;;;-146.27;77.96;44067.94;5089253;28;20032;-71
2024/03/19 08:01:09;;;;;;;6.22;2.42;;;;;;;-146.27;77.97;44073.91;5090289;28;20024;-70
2024/03/19 08:03:35;;;;;;;10.13;2.72;;;;;;;-146.27;77.67;44081.88;5088611;28;20028;-71
2024/03/19 08:06:01;;;;;;;6.15;2.88;;;;;;;-146.27;77.62;44123.66;5073278;28;20121;-71
2024/03/19 08:08:27;;;;;;;6.28;3.55;;;;;;;-146.27;77.64;44089.81;5076882;28;20047;-70
2024/03/19 08:10:53;;;;;;;11.65;3.38;;;;;;;-146.27;77.37;44147.53;5093268;28;20050;-71
2024/03/19 08:13:18;;;;;;;6.82;3.30;;;;;;;-146.27;77.17;44113.69;5076063;28;20072;-72
2024/03/19 08:15:44;;;;;;;8.07;3.47;;;;;;;-146.27;77.06;44119.66;5093413;28;20422;-70
2024/03/19 08:18:09;;;;;;;9.85;3.83;;;;;;;-146.27;76.51;44113.69;5092569;28;20365;-71
2024/03/19 08:20:37;;;;;;;9.30;4.00;;;;;;;-146.27;76.80;44169.41;5092185;28;20028;-73
2024/03/19 08:23:04;;;;;;;7.03;3.67;;;;;;;-146.27;76.55;44097.78;5090554;28;20035;-72
2024/03/19 08:25:30;;;;;;;8.27;3.50;;;;;;;-146.27;76.71;44151.50;5071974;28;20056;-72
2024/03/19 08:27:56;;;;;;;7.38;3.55;;;;;;;-146.27;76.33;44099.78;5072900;28;20137;-72
2024/03/19 08:30:22;;;;;;;9.52;3.20;;;;;;;-146.27;76.11;44117.69;5078846;28;20023;-72
2024/03/19 08:32:47;;;;;;;8.80;3.63;;;;;;;-146.27;76.41;44175.38;5092949;28;20028;-71
2024/03/19 08:35:14;;;;;;;12.48;4.00;;;;;;;-146.27;76.62;44165.44;5091903;28;20111;-70
2024/03/19 08:37:39;;;;;;;11.77;4.25;;;;;;;-146.27;76.44;44163.44;5093121;28;20028;-73
2024/03/19 08:40:05;;;;;;;8.57;3.55;;;;;;;-146.27;76.19;44131.59;5092913;28;20024;-71
2024/03/19 08:42:34;;;;;;;11.70;4.22;;;;;;;-146.27;76.36;44133.59;5092946;28;20067;-72
2024/03/19 08:45:00;;;;;;;10.07;3.28;;;;;;;-146.27;76.31;44163.44;5074269;28;20473;-72
2024/03/19 08:47:26;;;;;;;9.13;3.60;;;;;;;-146.27;75.64;44113.69;5073993;28;20035;-73
2024/03/19 08:49:52;;;;;;;9.32;3.10;;;;;;;-146.27;75.62;44147.53;5092919;28;20254;-71
2024/03/19 08:52:17;;;;;;;22.20;4.43;;;;;;;-146.27;75.00;44131.59;5092543;28;20032;-72
2024/03/19 08:54:43;;;;;;;8.43;3.20;;;;;;;-146.27;74.49;44171.41;5076551;28;20514;-71
2024/03/19 08:57:11;;;;;;;12.25;3.70;;;;;;;-146.27;74.48;44153.50;5072264;28;20104;-72
2024/03/19 08:59:36;;;;;;;9.45;3.63;;;;;;;-146.27;74.41;44179.34;5072207;28;20416;-73
2024/03/19 09:02:04;;;;;;;8.68;3.33;;;;;;;-146.27;74.07;44139.56;5070897;28;20031;-72
2024/03/19 09:04:30;;;;;;;7.88;3.10;;;;;;;-146.27;73.74;44167.41;5071915;28;20386;-71
2024/03/19 09:06:56;;;;;;;10.05;3.22;;;;;;;-146.27;73.26;44155.47;5072355;28;20077;-71
2024/03/19 09:09:21;;;;;;;6.03;2.95;;;;;;;-146.27;73.40;44179.34;5072466;28;20051;-72
2024/03/19 09:11:46;;;;;;;9.63;3.35;;;;;;;-146.27;72.71;44235.06;5081305;28;20024;-71
2024/03/19 09:14:12;;;;;;;7.18;3.45;;;;;;;-146.27;73.24;44322.63;5089533;28;20024;-73
2024/03/19 09:16:37;;;;;;;8.07;3.38;;;;;;;-146.27;72.85;44175.38;5092311;28;20028;-72
2024/03/19 09:19:03;;;;;;;6.43;2.95;;;;;;;-146.27;71.97;44153.50;5092119;28;20590;-72
2024/03/19 09:21:29;;;;;;;8.93;3.35;;;;;;;-146.27;73.01;44270.88;5092135;28;20059;-72
2024/03/19 09:23:54;;;;;;;4.88;3.17;;;;;;;-146.27;72.68;44143.53;5084336;28;20591;-72
2024/03/19 09:26:19;;;;;;;6.22;3.03;;;;;;;-146.27;72.44;44123.66;5070244;28;20508;-72
2024/03/19 09:28:45;;;;;;;6.85;2.85;;;;;;;-146.27;71.91;44243.03;5071806;28;20021;-72
2024/03/19 09:31:10;;;;;;;6.10;2.92;;;;;;;-146.27;72.46;44290.78;5088113;28;20028;-72
2024/03/19 09:33:36;;;;;;;9.15;2.85;;;;;;;-146.27;70.69;44159.47;5088960;28;20080;-72
2024/03/19 09:36:01;;;;;;;8.43;3.55;;;;;;;-146.27;70.40;44091.81;5071365;28;20515;-72
2024/03/19 09:38:28;;;;;;;10.55;4.18;;;;;;;-146.27;70.04;44171.41;5071418;28;20462;-72
2024/03/19 09:41:03;;;;;;;22.00;3.88;;;;;;;-146.27;69.71;44171.41;5076773;28;20020;-72
2024/03/19 09:43:34;;;;;;;5.32;2.55;;;;;;;-146.27;68.46;44139.56;5070673;28;20477;-72
2024/03/19 09:46:00;;;;;;;7.68;2.75;;;;;;;-146.27;68.73;44159.47;5071461;28;20475;-72
2024/03/19 09:48:27;;;;;;;5.32;2.33;;;;;;;-146.27;67.42;44079.88;5081808;28;20434;-71
2024/03/19 09:50:52;;;;;;;7.28;2.58;;;;;;;-146.27;67.33;44157.47;5082444;28;20020;-72
2024/03/19 09:53:19;;;;;;;12.23;2.95;;;;;;;-146.27;67.27;44165.44;5071090;28;20098;-76
2024/03/19 09:55:48;;;;;;;7.35;3.17;;;;;;;-146.27;66.66;44179.34;5071930;28;20441;-74
2024/03/19 09:58:14;;;;;;;9.15;2.65;;;;;;;-146.27;66.70;44270.88;5079792;28;20035;-74
2024/03/19 10:00:51;;;;;;;13.52;2.95;;;;;;;-146.27;66.86;44141.56;5084773;28;20060;-75
2024/03/19 10:03:17;;;;;;;12.02;3.05;;;;;;;-146.27;65.43;44163.44;5071935;28;20054;-74
2024/03/19 10:05:42;;;;;;;7.53;2.78;;;;;;;-146.27;65.57;44231.09;5072701;28;20531;-74
2024/03/19 10:08:12;;;;;;;10.05;2.88;;;;;;;-146.27;64.98;44103.75;5079693;28;20032;-75
2024/03/19 10:10:38;;;;;;;8.57;3.75;;;;;;;-146.27;64.34;44221.13;5091555;28;20481;-75
2024/03/19 10:13:03;;;;;;;13.00;3.05;;;;;;;-146.27;63.79;44040.09;5089625;28;20053;-74
2024/03/19 10:15:29;;;;;;;11.60;3.33;;;;;;;-146.27;63.37;43988.34;5091133;28;20020;-74
2024/03/19 10:17:57;;;;;;;8.25;2.70;;;;;;;-146.27;63.66;44147.53;5082947;28;20025;-74
2024/03/19 10:20:24;;;;;;;10.77;3.45;;;;;;;-146.27;62.74;44052.03;5070787;28;20561;-74
2024/03/19 10:22:50;;;;;;;6.50;2.80;;;;;;;-146.27;65.52;44354.44;5072398;28;20024;-74
2024/03/19 10:25:16;;;;;;;15.10;3.70;;;;;;;-146.27;64.34;44274.84;5090328;28;20079;-75
2024/03/19 10:27:50;;;;;;;9.38;3.10;;;;;;;-146.27;66.12;44264.91;5084459;28;20048;-74
2024/03/19 10:30:18;;;;;;;11.38;3.33;;;;;;;-146.27;64.85;44187.31;5090689;28;20095;-74
2024/03/19 10:32:45;;;;;;;10.20;2.70;;;;;;;-146.27;64.58;44123.66;5090548;28;20039;-74
2024/03/19 10:35:19;;;;;;;15.25;2.85;;;;;;;-146.27;65.56;44113.69;5090489;28;20028;-75
2024/03/19 10:37:46;;;;;;;12.88;3.38;;;;;;;-146.27;64.82;44179.34;5088821;28;20414;-75
2024/03/19 10:40:16;;;;;;;6.57;2.67;;;;;;;-146.27;65.03;44117.69;5079685;28;20114;-75
2024/03/19 10:42:43;;;;;;;11.68;2.97;;;;;;;-146.27;64.23;44091.81;5086411;28;20039;-75
2024/03/19 10:45:17;;;;;;;10.80;3.17;;;;;;;-146.27;64.53;44151.50;5090599;28;20558;-75
2024/03/19 10:47:44;;;;;;;11.27;3.15;;;;;;;-146.27;62.47;44167.41;5084410;28;20467;-74
2024/03/19 10:50:13;;;;;;;9.60;2.42;;;;;;;-146.27;62.75;44155.47;5070336;28;20052;-75
2024/03/19 10:52:41;;;;;;;14.00;3.08;;;;;;;-146.27;62.51;44314.66;5070147;28;20111;-75
2024/03/19 10:55:13;;;;;;;12.45;2.63;;;;;;;-146.27;62.65;44276.84;5070098;28;20110;-75
2024/03/19 10:57:39;;;;;;;6.77;2.27;;;;;;;-146.27;60.84;44205.22;5071255;28;20036;-75
2024/03/19 11:00:17;;;;;;;9.30;2.20;;;;;;;-146.27;60.62;44131.59;5089546;28;20301;-75
2024/03/19 11:02:47;;;;;;;8.38;2.38;;;;;;;-146.27;58.10;43982.38;5089135;28;20026;-73
2024/03/19 11:05:18;;;;;;;8.43;2.20;;;;;;;-146.27;57.03;43946.59;5090199;28;20024;-72
2024/03/19 11:07:50;;;;;;;5.72;1.80;;;;;;;-146.27;56.54;44099.78;5088698;28;20512;-73
2024/03/19 11:10:27;;;;;;;7.33;2.17;;;;;;;-146.27;55.90;44147.53;5080144;28;20042;-73